sensor_id;sensor_type;location;lat;lon;timestamp;P1;durP1;ratioP1;P2;durP2;ratioP2
14171;SDS011;7165;52.388;4.928;2022-12-18T00:02:18;70.43;;;37.27;;
14171;SDS011;7165;52.388;4.928;2022-12-18T00:04:45;68.47;;;38.17;;
14171;SDS011;7165;52.388;4.928;2022-12-18T00:07:11;74.47;;;40.30;;
14171;SDS011;7165;52.388;4.928;2022-12-18T00:09:38;72.90;;;38.27;;
14171;SDS011;7165;52.388;4.928;2022-12-18T00:12:05;72.70;;;39.43;;
14171;SDS011;7165;52.388;4.928;2022-12-18T00:14:32;74.80;;;39.10;;
14171;SDS011;7165;52.388;4.928;2022-12-18T00:17:00;70.10;;;37.73;;
14171;SDS011;7165;52.388;4.928;2022-12-18T00:19:27;71.73;;;37.70;;
14171;SDS011;7165;52.388;4.928;2022-12-18T00:21:54;73.97;;;39.00;;
14171;SDS011;7165;52.388;4.928;2022-12-18T00:24:21;79.80;;;39.57;;
14171;SDS011;7165;52.388;4.928;2022-12-18T00:26:47;73.07;;;37.20;;
14171;SDS011;7165;52.388;4.928;2022-12-18T00:29:14;77.33;;;40.93;;
14171;SDS011;7165;52.388;4.928;2022-12-18T00:31:41;69.40;;;36.23;;
14171;SDS011;7165;52.388;4.928;2022-12-18T00:34:10;72.23;;;39.60;;
14171;SDS011;7165;52.388;4.928;2022-12-18T00:36:38;64.77;;;35.13;;
14171;SDS011;7165;52.388;4.928;2022-12-18T00:39:05;71.43;;;37.80;;
14171;SDS011;7165;52.388;4.928;2022-12-18T00:41:32;68.90;;;37.77;;
14171;SDS011;7165;52.388;4.928;2022-12-18T00:44:17;74.10;;;39.10;;
14171;SDS011;7165;52.388;4.928;2022-12-18T00:46:44;70.50;;;38.07;;
14171;SDS011;7165;52.388;4.928;2022-12-18T00:49:13;74.97;;;41.20;;
14171;SDS011;7165;52.388;4.928;2022-12-18T00:51:40;65.67;;;37.23;;
14171;SDS011;7165;52.388;4.928;2022-12-18T00:54:07;70.20;;;40.40;;
14171;SDS011;7165;52.388;4.928;2022-12-18T00:56:34;68.03;;;37.03;;
14171;SDS011;7165;52.388;4.928;2022-12-18T00:59:02;72.27;;;39.53;;
14171;SDS011;7165;52.388;4.928;2022-12-18T01:01:29;66.33;;;36.50;;
14171;SDS011;7165;52.388;4.928;2022-12-18T01:03:57;65.70;;;36.60;;
14171;SDS011;7165;52.388;4.928;2022-12-18T01:06:26;72.47;;;37.83;;
14171;SDS011;7165;52.388;4.928;2022-12-18T01:08:53;65.13;;;34.47;;
14171;SDS011;7165;52.388;4.928;2022-12-18T01:11:20;66.50;;;37.43;;
14171;SDS011;7165;52.388;4.928;2022-12-18T01:13:47;62.83;;;36.47;;
14171;SDS011;7165;52.388;4.928;2022-12-18T01:16:14;68.70;;;37.70;;
14171;SDS011;7165;52.388;4.928;2022-12-18T01:18:42;67.73;;;36.37;;
14171;SDS011;7165;52.388;4.928;2022-12-18T01:21:10;65.37;;;34.53;;
14171;SDS011;7165;52.388;4.928;2022-12-18T01:23:39;61.50;;;34.87;;
14171;SDS011;7165;52.388;4.928;2022-12-18T01:26:14;71.27;;;37.57;;
14171;SDS011;7165;52.388;4.928;2022-12-18T01:28:41;61.40;;;34.03;;
14171;SDS011;7165;52.388;4.928;2022-12-18T01:31:13;62.87;;;34.00;;
14171;SDS011;7165;52.388;4.928;2022-12-18T01:33:41;58.87;;;33.97;;
14171;SDS011;7165;52.388;4.928;2022-12-18T01:36:13;67.37;;;37.20;;
14171;SDS011;7165;52.388;4.928;2022-12-18T01:38:42;54.40;;;33.60;;
14171;SDS011;7165;52.388;4.928;2022-12-18T01:41:09;63.87;;;34.43;;
14171;SDS011;7165;52.388;4.928;2022-12-18T01:43:43;58.93;;;32.47;;
14171;SDS011;7165;52.388;4.928;2022-12-18T01:46:13;62.90;;;34.33;;
14171;SDS011;7165;52.388;4.928;2022-12-18T01:48:40;56.43;;;34.20;;
14171;SDS011;7165;52.388;4.928;2022-12-18T01:51:09;71.63;;;36.93;;
14171;SDS011;7165;52.388;4.928;2022-12-18T01:53:37;65.80;;;35.77;;
14171;SDS011;7165;52.388;4.928;2022-12-18T01:56:07;70.83;;;37.17;;
14171;SDS011;7165;52.388;4.928;2022-12-18T01:58:39;67.13;;;36.57;;
14171;SDS011;7165;52.388;4.928;2022-12-18T02:01:12;60.80;;;34.17;;
14171;SDS011;7165;52.388;4.928;2022-12-18T02:03:40;58.70;;;35.23;;
14171;SDS011;7165;52.388;4.928;2022-12-18T02:06:09;63.83;;;36.67;;
14171;SDS011;7165;52.388;4.928;2022-12-18T02:08:43;58.27;;;34.60;;
14171;SDS011;7165;52.388;4.928;2022-12-18T02:11:20;55.93;;;33.83;;
14171;SDS011;7165;52.388;4.928;2022-12-18T02:13:56;60.80;;;33.80;;
14171;SDS011;7165;52.388;4.928;2022-12-18T02:16:32;63.20;;;33.87;;
14171;SDS011;7165;52.388;4.928;2022-12-18T02:19:06;61.33;;;37.07;;
14171;SDS011;7165;52.388;4.928;2022-12-18T02:21:44;57.50;;;34.17;;
14171;SDS011;7165;52.388;4.928;2022-12-18T02:24:18;54.60;;;36.00;;
14171;SDS011;7165;52.388;4.928;2022-12-18T02:26:56;66.27;;;35.60;;
14171;SDS011;7165;52.388;4.928;2022-12-18T02:29:25;54.47;;;33.23;;
14171;SDS011;7165;52.388;4.928;2022-12-18T02:31:57;62.57;;;37.33;;
14171;SDS011;7165;52.388;4.928;2022-12-18T02:34:25;60.00;;;34.73;;
14171;SDS011;7165;52.388;4.928;2022-12-18T02:36:54;66.40;;;37.50;;
14171;SDS011;7165;52.388;4.928;2022-12-18T02:39:23;60.30;;;37.00;;
14171;SDS011;7165;52.388;4.928;2022-12-18T02:41:52;63.33;;;34.83;;
14171;SDS011;7165;52.388;4.928;2022-12-18T02:44:20;58.80;;;34.60;;
14171;SDS011;7165;52.388;4.928;2022-12-18T02:46:48;54.53;;;33.07;;
14171;SDS011;7165;52.388;4.928;2022-12-18T02:49:20;65.50;;;36.83;;
14171;SDS011;7165;52.388;4.928;2022-12-18T02:51:53;53.03;;;32.33;;
14171;SDS011;7165;52.388;4.928;2022-12-18T02:54:30;57.37;;;33.93;;
14171;SDS011;7165;52.388;4.928;2022-12-18T02:57:06;57.53;;;33.33;;
14171;SDS011;7165;52.388;4.928;2022-12-18T02:59:44;57.17;;;34.33;;
14171;SDS011;7165;52.388;4.928;2022-12-18T03:02:17;57.77;;;33.40;;
14171;SDS011;7165;52.388;4.928;2022-12-18T03:04:48;59.87;;;33.47;;
14171;SDS011;7165;52.388;4.928;2022-12-18T03:07:20;48.83;;;31.57;;
14171;SDS011;7165;52.388;4.928;2022-12-18T03:09:51;58.70;;;34.40;;
14171;SDS011;7165;52.388;4.928;2022-12-18T03:12:21;53.13;;;31.87;;
14171;SDS011;7165;52.388;4.928;2022-12-18T03:14:56;53.73;;;33.53;;
14171;SDS011;7165;52.388;4.928;2022-12-18T03:17:29;50.50;;;31.57;;
14171;SDS011;7165;52.388;4.928;2022-12-18T03:19:58;52.57;;;31.53;;
14171;SDS011;7165;52.388;4.928;2022-12-18T03:22:29;49.23;;;30.80;;
14171;SDS011;7165;52.388;4.928;2022-12-18T03:24:58;50.77;;;30.93;;
14171;SDS011;7165;52.388;4.928;2022-12-18T03:27:28;52.00;;;32.83;;
14171;SDS011;7165;52.388;4.928;2022-12-18T03:30:01;57.63;;;32.27;;
14171;SDS011;7165;52.388;4.928;2022-12-18T03:32:33;54.63;;;33.10;;
14171;SDS011;7165;52.388;4.928;2022-12-18T03:35:06;56.17;;;32.37;;
14171;SDS011;7165;52.388;4.928;2022-12-18T03:37:35;55.07;;;33.37;;
14171;SDS011;7165;52.388;4.928;2022-12-18T03:40:02;51.20;;;32.53;;
14171;SDS011;7165;52.388;4.928;2022-12-18T03:42:32;53.63;;;32.10;;
14171;SDS011;7165;52.388;4.928;2022-12-18T03:45:08;49.67;;;32.37;;
14171;SDS011;7165;52.388;4.928;2022-12-18T03:47:39;48.80;;;30.73;;
14171;SDS011;7165;52.388;4.928;2022-12-18T03:50:16;48.83;;;29.80;;
14171;SDS011;7165;52.388;4.928;2022-12-18T03:52:45;51.47;;;34.00;;
14171;SDS011;7165;52.388;4.928;2022-12-18T03:55:18;51.43;;;31.53;;
14171;SDS011;7165;52.388;4.928;2022-12-18T03:57:47;53.77;;;33.87;;
14171;SDS011;7165;52.388;4.928;2022-12-18T04:00:16;52.53;;;33.40;;
14171;SDS011;7165;52.388;4.928;2022-12-18T04:02:45;54.50;;;32.77;;
14171;SDS011;7165;52.388;4.928;2022-12-18T04:05:16;55.00;;;34.20;;
14171;SDS011;7165;52.388;4.928;2022-12-18T04:07:44;47.70;;;29.90;;
14171;SDS011;7165;52.388;4.928;2022-12-18T04:10:13;52.63;;;32.87;;
14171;SDS011;7165;52.388;4.928;2022-12-18T04:12:41;56.40;;;34.50;;
14171;SDS011;7165;52.388;4.928;2022-12-18T04:15:08;51.97;;;31.73;;
14171;SDS011;7165;52.388;4.928;2022-12-18T04:17:38;48.67;;;30.53;;
14171;SDS011;7165;52.388;4.928;2022-12-18T04:20:05;45.17;;;29.60;;
14171;SDS011;7165;52.388;4.928;2022-12-18T04:22:32;49.80;;;32.07;;
14171;SDS011;7165;52.388;4.928;2022-12-18T04:25:00;50.50;;;31.30;;
14171;SDS011;7165;52.388;4.928;2022-12-18T04:27:27;52.57;;;32.03;;
14171;SDS011;7165;52.388;4.928;2022-12-18T04:29:54;50.97;;;31.23;;
14171;SDS011;7165;52.388;4.928;2022-12-18T04:32:21;45.77;;;30.23;;
14171;SDS011;7165;52.388;4.928;2022-12-18T04:34:49;56.13;;;32.27;;
14171;SDS011;7165;52.388;4.928;2022-12-18T04:37:15;50.00;;;31.00;;
14171;SDS011;7165;52.388;4.928;2022-12-18T04:39:42;56.90;;;34.10;;
14171;SDS011;7165;52.388;4.928;2022-12-18T04:42:09;52.37;;;33.57;;
14171;SDS011;7165;52.388;4.928;2022-12-18T04:44:36;53.37;;;33.70;;
14171;SDS011;7165;52.388;4.928;2022-12-18T04:47:03;51.33;;;32.43;;
14171;SDS011;7165;52.388;4.928;2022-12-18T04:49:29;53.47;;;32.80;;
14171;SDS011;7165;52.388;4.928;2022-12-18T04:51:57;52.97;;;33.17;;
14171;SDS011;7165;52.388;4.928;2022-12-18T04:54:24;50.23;;;31.27;;
14171;SDS011;7165;52.388;4.928;2022-12-18T04:56:51;49.50;;;33.50;;
14171;SDS011;7165;52.388;4.928;2022-12-18T04:59:17;49.40;;;31.83;;
14171;SDS011;7165;52.388;4.928;2022-12-18T05:01:44;50.00;;;31.37;;
14171;SDS011;7165;52.388;4.928;2022-12-18T05:04:11;51.27;;;32.40;;
14171;SDS011;7165;52.388;4.928;2022-12-18T05:06:38;47.40;;;31.07;;
14171;SDS011;7165;52.388;4.928;2022-12-18T05:09:06;47.43;;;29.40;;
14171;SDS011;7165;52.388;4.928;2022-12-18T05:11:33;48.77;;;30.87;;
14171;SDS011;7165;52.388;4.928;2022-12-18T05:14:02;47.33;;;31.23;;
14171;SDS011;7165;52.388;4.928;2022-12-18T05:16:29;51.10;;;32.70;;
14171;SDS011;7165;52.388;4.928;2022-12-18T05:18:55;47.00;;;31.67;;
14171;SDS011;7165;52.388;4.928;2022-12-18T05:21:22;46.80;;;29.53;;
14171;SDS011;7165;52.388;4.928;2022-12-18T05:23:49;50.63;;;32.00;;
14171;SDS011;7165;52.388;4.928;2022-12-18T05:26:17;46.97;;;32.33;;
14171;SDS011;7165;52.388;4.928;2022-12-18T05:28:44;43.30;;;28.23;;
14171;SDS011;7165;52.388;4.928;2022-12-18T05:31:12;45.47;;;30.63;;
14171;SDS011;7165;52.388;4.928;2022-12-18T05:33:39;46.37;;;30.33;;
14171;SDS011;7165;52.388;4.928;2022-12-18T05:36:06;49.63;;;32.40;;
14171;SDS011;7165;52.388;4.928;2022-12-18T05:38:35;49.30;;;32.33;;
14171;SDS011;7165;52.388;4.928;2022-12-18T05:41:03;46.00;;;31.10;;
14171;SDS011;7165;52.388;4.928;2022-12-18T05:43:33;48.10;;;31.00;;
14171;SDS011;7165;52.388;4.928;2022-12-18T05:46:02;44.77;;;30.33;;
14171;SDS011;7165;52.388;4.928;2022-12-18T05:48:30;48.73;;;30.67;;
14171;SDS011;7165;52.388;4.928;2022-12-18T05:51:02;48.40;;;31.23;;
14171;SDS011;7165;52.388;4.928;2022-12-18T05:53:31;45.83;;;32.13;;
14171;SDS011;7165;52.388;4.928;2022-12-18T05:55:59;47.70;;;32.67;;
14171;SDS011;7165;52.388;4.928;2022-12-18T05:58:27;46.87;;;32.07;;
14171;SDS011;7165;52.388;4.928;2022-12-18T06:00:55;47.80;;;33.00;;
14171;SDS011;7165;52.388;4.928;2022-12-18T06:03:22;50.77;;;35.87;;
14171;SDS011;7165;52.388;4.928;2022-12-18T06:05:49;44.13;;;31.93;;
14171;SDS011;7165;52.388;4.928;2022-12-18T06:08:15;48.00;;;32.67;;
14171;SDS011;7165;52.388;4.928;2022-12-18T06:10:48;43.13;;;31.13;;
14171;SDS011;7165;52.388;4.928;2022-12-18T06:13:17;44.37;;;30.70;;
14171;SDS011;7165;52.388;4.928;2022-12-18T06:15:43;52.27;;;33.17;;
14171;SDS011;7165;52.388;4.928;2022-12-18T06:18:11;48.13;;;33.20;;
14171;SDS011;7165;52.388;4.928;2022-12-18T06:20:38;47.73;;;33.73;;
14171;SDS011;7165;52.388;4.928;2022-12-18T06:23:06;43.63;;;32.53;;
14171;SDS011;7165;52.388;4.928;2022-12-18T06:25:36;40.43;;;29.20;;
14171;SDS011;7165;52.388;4.928;2022-12-18T06:28:04;40.30;;;30.40;;
14171;SDS011;7165;52.388;4.928;2022-12-18T06:30:30;43.63;;;29.10;;
14171;SDS011;7165;52.388;4.928;2022-12-18T06:32:57;38.57;;;28.20;;
14171;SDS011;7165;52.388;4.928;2022-12-18T06:35:25;38.67;;;28.07;;
14171;SDS011;7165;52.388;4.928;2022-12-18T06:37:52;34.33;;;25.97;;
14171;SDS011;7165;52.388;4.928;2022-12-18T06:40:18;38.33;;;26.07;;
14171;SDS011;7165;52.388;4.928;2022-12-18T06:42:45;33.03;;;24.73;;
14171;SDS011;7165;52.388;4.928;2022-12-18T06:45:12;33.43;;;24.93;;
14171;SDS011;7165;52.388;4.928;2022-12-18T06:47:39;35.93;;;25.87;;
14171;SDS011;7165;52.388;4.928;2022-12-18T06:50:06;36.70;;;22.70;;
14171;SDS011;7165;52.388;4.928;2022-12-18T06:52:34;30.17;;;23.73;;
14171;SDS011;7165;52.388;4.928;2022-12-18T06:55:01;31.80;;;23.43;;
14171;SDS011;7165;52.388;4.928;2022-12-18T06:57:29;31.57;;;23.93;;
14171;SDS011;7165;52.388;4.928;2022-12-18T06:59:55;33.13;;;24.33;;
14171;SDS011;7165;52.388;4.928;2022-12-18T07:02:22;32.83;;;22.47;;
14171;SDS011;7165;52.388;4.928;2022-12-18T07:04:48;29.80;;;22.03;;
14171;SDS011;7165;52.388;4.928;2022-12-18T07:07:15;31.47;;;22.73;;
14171;SDS011;7165;52.388;4.928;2022-12-18T07:09:43;25.60;;;21.23;;
14171;SDS011;7165;52.388;4.928;2022-12-18T07:12:10;27.53;;;21.33;;
14171;SDS011;7165;52.388;4.928;2022-12-18T07:14:37;24.77;;;19.70;;
14171;SDS011;7165;52.388;4.928;2022-12-18T07:17:03;26.90;;;21.43;;
14171;SDS011;7165;52.388;4.928;2022-12-18T07:19:30;25.17;;;20.43;;
14171;SDS011;7165;52.388;4.928;2022-12-18T07:21:57;22.47;;;19.73;;
14171;SDS011;7165;52.388;4.928;2022-12-18T07:24:23;29.57;;;22.00;;
14171;SDS011;7165;52.388;4.928;2022-12-18T07:26:51;30.33;;;21.93;;
14171;SDS011;7165;52.388;4.928;2022-12-18T07:29:18;23.37;;;18.07;;
14171;SDS011;7165;52.388;4.928;2022-12-18T07:31:45;24.53;;;20.37;;
14171;SDS011;7165;52.388;4.928;2022-12-18T07:34:11;26.10;;;19.50;;
14171;SDS011;7165;52.388;4.928;2022-12-18T07:36:39;25.53;;;19.30;;
14171;SDS011;7165;52.388;4.928;2022-12-18T07:39:06;24.90;;;19.23;;
14171;SDS011;7165;52.388;4.928;2022-12-18T07:41:33;24.23;;;19.60;;
14171;SDS011;7165;52.388;4.928;2022-12-18T07:44:01;24.87;;;20.53;;
14171;SDS011;7165;52.388;4.928;2022-12-18T07:46:28;28.30;;;20.30;;
14171;SDS011;7165;52.388;4.928;2022-12-18T07:48:55;26.33;;;20.00;;
14171;SDS011;7165;52.388;4.928;2022-12-18T07:51:21;25.60;;;19.83;;
14171;SDS011;7165;52.388;4.928;2022-12-18T07:53:48;22.00;;;17.30;;
14171;SDS011;7165;52.388;4.928;2022-12-18T07:56:15;25.03;;;19.60;;
14171;SDS011;7165;52.388;4.928;2022-12-18T07:58:41;25.23;;;20.73;;
14171;SDS011;7165;52.388;4.928;2022-12-18T08:01:10;23.77;;;19.53;;
14171;SDS011;7165;52.388;4.928;2022-12-18T08:03:39;25.63;;;19.93;;
14171;SDS011;7165;52.388;4.928;2022-12-18T08:06:06;27.53;;;19.63;;
14171;SDS011;7165;52.388;4.928;2022-12-18T08:08:34;24.50;;;18.23;;
14171;SDS011;7165;52.388;4.928;2022-12-18T08:11:01;22.20;;;18.93;;
14171;SDS011;7165;52.388;4.928;2022-12-18T08:13:28;25.07;;;19.90;;
14171;SDS011;7165;52.388;4.928;2022-12-18T08:15:55;22.17;;;18.67;;
14171;SDS011;7165;52.388;4.928;2022-12-18T08:18:24;24.47;;;19.07;;
14171;SDS011;7165;52.388;4.928;2022-12-18T08:20:51;21.20;;;17.50;;
14171;SDS011;7165;52.388;4.928;2022-12-18T08:23:18;24.97;;;19.47;;
14171;SDS011;7165;52.388;4.928;2022-12-18T08:25:44;25.37;;;19.67;;
14171;SDS011;7165;52.388;4.928;2022-12-18T08:28:11;24.27;;;19.37;;
14171;SDS011;7165;52.388;4.928;2022-12-18T08:30:38;20.57;;;17.70;;
14171;SDS011;7165;52.388;4.928;2022-12-18T08:33:05;22.07;;;17.10;;
14171;SDS011;7165;52.388;4.928;2022-12-18T08:35:35;25.70;;;18.07;;
14171;SDS011;7165;52.388;4.928;2022-12-18T08:38:02;21.17;;;17.60;;
14171;SDS011;7165;52.388;4.928;2022-12-18T08:40:29;24.57;;;17.67;;
14171;SDS011;7165;52.388;4.928;2022-12-18T08:42:56;19.87;;;17.23;;
14171;SDS011;7165;52.388;4.928;2022-12-18T08:45:40;22.47;;;16.90;;
14171;SDS011;7165;52.388;4.928;2022-12-18T08:48:07;21.73;;;17.33;;
14171;SDS011;7165;52.388;4.928;2022-12-18T08:50:33;25.97;;;19.43;;
14171;SDS011;7165;52.388;4.928;2022-12-18T08:53:01;25.27;;;19.27;;
14171;SDS011;7165;52.388;4.928;2022-12-18T08:55:28;23.93;;;18.70;;
14171;SDS011;7165;52.388;4.928;2022-12-18T08:57:55;24.00;;;20.13;;
14171;SDS011;7165;52.388;4.928;2022-12-18T09:00:21;21.17;;;17.33;;
14171;SDS011;7165;52.388;4.928;2022-12-18T09:02:48;19.40;;;17.10;;
14171;SDS011;7165;52.388;4.928;2022-12-18T09:05:15;23.97;;;17.17;;
14171;SDS011;7165;52.388;4.928;2022-12-18T09:07:43;20.77;;;17.83;;
14171;SDS011;7165;52.388;4.928;2022-12-18T09:10:10;22.17;;;18.67;;
14171;SDS011;7165;52.388;4.928;2022-12-18T09:12:36;20.80;;;17.03;;
14171;SDS011;7165;52.388;4.928;2022-12-18T09:15:05;24.67;;;17.60;;
14171;SDS011;7165;52.388;4.928;2022-12-18T09:17:32;24.27;;;18.10;;
14171;SDS011;7165;52.388;4.928;2022-12-18T09:19:59;21.83;;;18.20;;
14171;SDS011;7165;52.388;4.928;2022-12-18T09:22:26;23.43;;;18.67;;
14171;SDS011;7165;52.388;4.928;2022-12-18T09:24:54;20.43;;;17.20;;
14171;SDS011;7165;52.388;4.928;2022-12-18T09:27:20;21.23;;;17.83;;
14171;SDS011;7165;52.388;4.928;2022-12-18T09:29:47;19.67;;;17.50;;
14171;SDS011;7165;52.388;4.928;2022-12-18T09:32:14;21.80;;;18.27;;
14171;SDS011;7165;52.388;4.928;2022-12-18T09:34:42;22.00;;;19.03;;
14171;SDS011;7165;52.388;4.928;2022-12-18T09:37:09;21.87;;;18.53;;
14171;SDS011;7165;52.388;4.928;2022-12-18T09:39:36;19.77;;;17.07;;
14171;SDS011;7165;52.388;4.928;2022-12-18T09:42:05;19.77;;;17.67;;
14171;SDS011;7165;52.388;4.928;2022-12-18T09:44:36;20.60;;;18.17;;
14171;SDS011;7165;52.388;4.928;2022-12-18T09:47:08;20.13;;;16.77;;
14171;SDS011;7165;52.388;4.928;2022-12-18T09:49:39;19.83;;;17.77;;
14171;SDS011;7165;52.388;4.928;2022-12-18T09:52:11;21.03;;;17.83;;
14171;SDS011;7165;52.388;4.928;2022-12-18T09:54:42;21.33;;;17.87;;
14171;SDS011;7165;52.388;4.928;2022-12-18T09:57:14;23.50;;;20.50;;
14171;SDS011;7165;52.388;4.928;2022-12-18T09:59:44;20.97;;;18.47;;
14171;SDS011;7165;52.388;4.928;2022-12-18T10:02:16;21.33;;;18.50;;
14171;SDS011;7165;52.388;4.928;2022-12-18T10:04:47;22.37;;;18.97;;
14171;SDS011;7165;52.388;4.928;2022-12-18T10:07:20;20.67;;;17.60;;
14171;SDS011;7165;52.388;4.928;2022-12-18T10:09:57;21.47;;;17.43;;
14171;SDS011;7165;52.388;4.928;2022-12-18T10:12:30;22.07;;;17.47;;
14171;SDS011;7165;52.388;4.928;2022-12-18T10:15:06;18.10;;;16.27;;
14171;SDS011;7165;52.388;4.928;2022-12-18T10:17:38;19.13;;;17.13;;
14171;SDS011;7165;52.388;4.928;2022-12-18T10:20:13;18.60;;;16.60;;
14171;SDS011;7165;52.388;4.928;2022-12-18T10:22:48;19.67;;;17.10;;
14171;SDS011;7165;52.388;4.928;2022-12-18T10:25:21;20.53;;;16.63;;
14171;SDS011;7165;52.388;4.928;2022-12-18T10:27:52;26.73;;;16.73;;
14171;SDS011;7165;52.388;4.928;2022-12-18T10:30:22;20.07;;;17.10;;
14171;SDS011;7165;52.388;4.928;2022-12-18T10:32:50;17.10;;;15.33;;
14171;SDS011;7165;52.388;4.928;2022-12-18T10:35:18;19.10;;;16.67;;
14171;SDS011;7165;52.388;4.928;2022-12-18T10:37:59;19.13;;;17.07;;
14171;SDS011;7165;52.388;4.928;2022-12-18T10:40:26;18.73;;;16.77;;
14171;SDS011;7165;52.388;4.928;2022-12-18T10:43:04;19.57;;;16.43;;
14171;SDS011;7165;52.388;4.928;2022-12-18T10:45:36;19.43;;;16.73;;
14171;SDS011;7165;52.388;4.928;2022-12-18T10:48:03;18.33;;;16.43;;
14171;SDS011;7165;52.388;4.928;2022-12-18T10:50:31;19.30;;;16.50;;
14171;SDS011;7165;52.388;4.928;2022-12-18T10:52:59;20.60;;;16.83;;
14171;SDS011;7165;52.388;4.928;2022-12-18T10:55:30;21.07;;;17.37;;
14171;SDS011;7165;52.388;4.928;2022-12-18T11:01:00;19.93;;;16.57;;
14171;SDS011;7165;52.388;4.928;2022-12-18T11:03:33;19.57;;;16.27;;
14171;SDS011;7165;52.388;4.928;2022-12-18T11:06:02;18.43;;;16.37;;
14171;SDS011;7165;52.388;4.928;2022-12-18T11:08:31;19.73;;;16.53;;
14171;SDS011;7165;52.388;4.928;2022-12-18T11:10:58;18.67;;;16.67;;
14171;SDS011;7165;52.388;4.928;2022-12-18T11:13:26;17.93;;;15.97;;
14171;SDS011;7165;52.388;4.928;2022-12-18T11:15:55;18.50;;;16.50;;
14171;SDS011;7165;52.388;4.928;2022-12-18T11:18:24;20.37;;;17.20;;
14171;SDS011;7165;52.388;4.928;2022-12-18T11:20:54;18.97;;;16.97;;
14171;SDS011;7165;52.388;4.928;2022-12-18T11:23:23;20.03;;;17.03;;
14171;SDS011;7165;52.388;4.928;2022-12-18T11:25:51;19.53;;;16.97;;
14171;SDS011;7165;52.388;4.928;2022-12-18T11:28:37;20.13;;;17.13;;
14171;SDS011;7165;52.388;4.928;2022-12-18T11:31:11;21.10;;;16.87;;
14171;SDS011;7165;52.388;4.928;2022-12-18T11:33:48;24.87;;;17.13;;
14171;SDS011;7165;52.388;4.928;2022-12-18T11:36:22;17.70;;;15.53;;
14171;SDS011;7165;52.388;4.928;2022-12-18T11:38:52;19.40;;;16.57;;
14171;SDS011;7165;52.388;4.928;2022-12-18T11:41:21;17.80;;;16.00;;
14171;SDS011;7165;52.388;4.928;2022-12-18T11:44:15;17.33;;;15.13;;
14171;SDS011;7165;52.388;4.928;2022-12-18T11:46:51;18.27;;;16.30;;
14171;SDS011;7165;52.388;4.928;2022-12-18T11:49:24;18.07;;;15.67;;
14171;SDS011;7165;52.388;4.928;2022-12-18T11:51:55;18.67;;;15.97;;
14171;SDS011;7165;52.388;4.928;2022-12-18T11:54:26;17.80;;;15.90;;
14171;SDS011;7165;52.388;4.928;2022-12-18T11:56:53;17.63;;;15.83;;
14171;SDS011;7165;52.388;4.928;2022-12-18T11:59:28;19.37;;;16.23;;
14171;SDS011;7165;52.388;4.928;2022-12-18T12:02:02;20.50;;;15.23;;
14171;SDS011;7165;52.388;4.928;2022-12-18T12:04:41;19.63;;;15.80;;
14171;SDS011;7165;52.388;4.928;2022-12-18T12:07:28;17.77;;;15.20;;
14171;SDS011;7165;52.388;4.928;2022-12-18T12:10:07;17.83;;;15.73;;
14171;SDS011;7165;52.388;4.928;2022-12-18T12:12:51;18.20;;;16.00;;
14171;SDS011;7165;52.388;4.928;2022-12-18T12:15:28;17.63;;;15.57;;
14171;SDS011;7165;52.388;4.928;2022-12-18T12:18:03;21.60;;;18.20;;
14171;SDS011;7165;52.388;4.928;2022-12-18T12:20:42;18.73;;;16.70;;
14171;SDS011;7165;52.388;4.928;2022-12-18T12:23:18;20.80;;;16.87;;
14171;SDS011;7165;52.388;4.928;2022-12-18T12:25:53;19.13;;;16.20;;
14171;SDS011;7165;52.388;4.928;2022-12-18T12:28:28;18.37;;;15.47;;
14171;SDS011;7165;52.388;4.928;2022-12-18T12:31:12;19.07;;;16.53;;
14171;SDS011;7165;52.388;4.928;2022-12-18T12:33:49;18.83;;;15.33;;
14171;SDS011;7165;52.388;4.928;2022-12-18T12:36:26;19.80;;;15.27;;
14171;SDS011;7165;52.388;4.928;2022-12-18T12:39:05;18.03;;;16.13;;
14171;SDS011;7165;52.388;4.928;2022-12-18T12:41:35;16.80;;;14.90;;
14171;SDS011;7165;52.388;4.928;2022-12-18T12:44:22;19.63;;;16.90;;
14171;SDS011;7165;52.388;4.928;2022-12-18T12:46:55;17.93;;;15.77;;
14171;SDS011;7165;52.388;4.928;2022-12-18T12:49:26;16.47;;;14.77;;
14171;SDS011;7165;52.388;4.928;2022-12-18T12:51:56;22.07;;;16.73;;
14171;SDS011;7165;52.388;4.928;2022-12-18T12:54:30;19.20;;;16.83;;
14171;SDS011;7165;52.388;4.928;2022-12-18T12:56:59;18.70;;;16.30;;
14171;SDS011;7165;52.388;4.928;2022-12-18T12:59:31;17.93;;;15.77;;
14171;SDS011;7165;52.388;4.928;2022-12-18T13:02:09;17.50;;;15.70;;
14171;SDS011;7165;52.388;4.928;2022-12-18T13:04:45;18.50;;;16.60;;
14171;SDS011;7165;52.388;4.928;2022-12-18T13:07:19;17.73;;;15.77;;
14171;SDS011;7165;52.388;4.928;2022-12-18T13:10:12;17.07;;;15.27;;
14171;SDS011;7165;52.388;4.928;2022-12-18T13:12:52;19.53;;;16.83;;
14171;SDS011;7165;52.388;4.928;2022-12-18T13:15:23;17.73;;;15.63;;
14171;SDS011;7165;52.388;4.928;2022-12-18T13:20:50;18.00;;;15.43;;
14171;SDS011;7165;52.388;4.928;2022-12-18T13:23:29;19.20;;;17.13;;
14171;SDS011;7165;52.388;4.928;2022-12-18T13:25:59;19.03;;;15.87;;
14171;SDS011;7165;52.388;4.928;2022-12-18T13:28:50;18.67;;;16.67;;
14171;SDS011;7165;52.388;4.928;2022-12-18T13:34:35;20.30;;;16.40;;
14171;SDS011;7165;52.388;4.928;2022-12-18T13:43:27;18.93;;;16.13;;
14171;SDS011;7165;52.388;4.928;2022-12-18T13:46:02;20.87;;;16.60;;
14171;SDS011;7165;52.388;4.928;2022-12-18T13:48:48;20.37;;;15.93;;
14171;SDS011;7165;52.388;4.928;2022-12-18T13:51:19;19.60;;;16.97;;
14171;SDS011;7165;52.388;4.928;2022-12-18T13:53:48;19.57;;;16.33;;
14171;SDS011;7165;52.388;4.928;2022-12-18T13:56:17;21.37;;;17.10;;
14171;SDS011;7165;52.388;4.928;2022-12-18T13:58:44;20.33;;;16.57;;
14171;SDS011;7165;52.388;4.928;2022-12-18T14:01:23;19.63;;;16.93;;
14171;SDS011;7165;52.388;4.928;2022-12-18T14:03:50;17.93;;;15.93;;
14171;SDS011;7165;52.388;4.928;2022-12-18T14:06:17;21.47;;;17.17;;
14171;SDS011;7165;52.388;4.928;2022-12-18T14:08:45;18.33;;;16.33;;
14171;SDS011;7165;52.388;4.928;2022-12-18T14:11:17;22.30;;;16.67;;
14171;SDS011;7165;52.388;4.928;2022-12-18T14:13:48;17.17;;;15.07;;
14171;SDS011;7165;52.388;4.928;2022-12-18T14:16:15;16.60;;;14.80;;
14171;SDS011;7165;52.388;4.928;2022-12-18T14:18:44;20.20;;;16.70;;
14171;SDS011;7165;52.388;4.928;2022-12-18T14:21:17;18.87;;;16.43;;
14171;SDS011;7165;52.388;4.928;2022-12-18T14:23:49;18.47;;;14.80;;
14171;SDS011;7165;52.388;4.928;2022-12-18T14:26:28;18.73;;;15.60;;
14171;SDS011;7165;52.388;4.928;2022-12-18T14:28:56;16.40;;;14.70;;
14171;SDS011;7165;52.388;4.928;2022-12-18T14:31:26;18.00;;;15.57;;
14171;SDS011;7165;52.388;4.928;2022-12-18T14:33:54;17.70;;;15.63;;
14171;SDS011;7165;52.388;4.928;2022-12-18T14:36:22;16.53;;;14.93;;
14171;SDS011;7165;52.388;4.928;2022-12-18T14:38:51;17.90;;;15.97;;
14171;SDS011;7165;52.388;4.928;2022-12-18T14:41:20;17.83;;;15.57;;
14171;SDS011;7165;52.388;4.928;2022-12-18T14:43:48;17.43;;;15.43;;
14171;SDS011;7165;52.388;4.928;2022-12-18T14:46:26;19.70;;;16.23;;
14171;SDS011;7165;52.388;4.928;2022-12-18T14:48:55;19.07;;;16.13;;
14171;SDS011;7165;52.388;4.928;2022-12-18T14:51:24;17.13;;;14.60;;
14171;SDS011;7165;52.388;4.928;2022-12-18T14:53:56;19.37;;;16.50;;
14171;SDS011;7165;52.388;4.928;2022-12-18T14:56:25;20.43;;;16.27;;
14171;SDS011;7165;52.388;4.928;2022-12-18T14:58:54;18.70;;;16.70;;
14171;SDS011;7165;52.388;4.928;2022-12-18T15:01:26;19.97;;;16.03;;
14171;SDS011;7165;52.388;4.928;2022-12-18T15:03:55;19.17;;;16.07;;
14171;SDS011;7165;52.388;4.928;2022-12-18T15:06:25;19.07;;;15.30;;